createdAt,value
2018-04-01T00:02:11.797Z,7.90
2018-04-01T00:04:39.152Z,8.57
2018-04-01T00:07:06.179Z,7.70
2018-04-01T00:09:33.229Z,8.20
2018-04-01T00:12:00.275Z,8.63
2018-04-01T00:14:27.301Z,7.63
2018-04-01T00:16:55.107Z,7.80
2018-04-01T00:19:22.375Z,8.20
2018-04-01T00:21:49.413Z,8.10
2018-04-01T00:24:16.482Z,7.43
2018-04-01T00:26:43.485Z,7.80
2018-04-01T00:29:10.491Z,7.03
2018-04-01T00:31:37.635Z,7.27
2018-04-01T00:34:04.646Z,7.33
2018-04-01T00:36:31.730Z,7.00
2018-04-01T00:38:58.758Z,7.50
2018-04-01T00:41:26.542Z,7.33
2018-04-01T00:43:54.327Z,7.17
2018-04-01T00:46:21.511Z,7.80
2018-04-01T00:48:48.535Z,7.60
2018-04-01T00:51:15.561Z,7.37
2018-04-01T00:53:43.473Z,7.87
2018-04-01T00:56:10.498Z,7.23
2018-04-01T00:58:38.283Z,7.67
2018-04-01T01:01:05.308Z,6.97
2018-04-01T01:03:33.098Z,7.47
2018-04-01T01:06:00.184Z,7.20
2018-04-01T01:08:27.240Z,7.30
2018-04-01T01:10:54.267Z,7.13
2018-04-01T01:13:21.306Z,6.93
2018-04-01T01:15:49.110Z,7.37
2018-04-01T01:18:16.119Z,7.20
2018-04-01T01:20:43.979Z,7.43
2018-04-01T01:23:11.779Z,6.30
2018-04-01T01:25:38.814Z,7.07
2018-04-01T01:28:06.588Z,6.20
2018-04-01T01:30:34.398Z,6.80
2018-04-01T01:33:01.413Z,7.07
2018-04-01T01:35:28.473Z,6.80
2018-04-01T01:37:55.535Z,6.83
2018-04-01T01:40:22.542Z,6.50
2018-04-01T01:42:49.632Z,6.47
2018-04-01T01:45:16.669Z,6.20
2018-04-01T01:47:44.439Z,6.13
2018-04-01T01:50:12.238Z,6.23
2018-04-01T01:52:39.278Z,6.57
2018-04-01T01:55:06.297Z,6.13
2018-04-01T01:57:34.098Z,6.13
2018-04-01T02:00:01.134Z,6.00
2018-04-01T02:02:28.168Z,5.80
2018-04-01T02:04:56.694Z,6.10
2018-04-01T02:07:23.744Z,5.40
2018-04-01T02:09:50.758Z,5.53
2018-04-01T02:12:18.667Z,5.77
2018-04-01T02:14:45.749Z,5.60
2018-04-01T02:17:12.759Z,5.63
2018-04-01T02:19:40.536Z,5.63
2018-04-01T02:22:08.423Z,5.60
2018-04-01T02:24:35.479Z,5.07
2018-04-01T02:27:02.500Z,5.70
2018-04-01T02:29:30.307Z,5.70
2018-04-01T02:31:57.491Z,5.77
2018-04-01T02:34:24.510Z,5.60
2018-04-01T02:36:51.561Z,5.47
2018-04-01T02:39:18.605Z,5.17
2018-04-01T02:41:45.667Z,5.53
2018-04-01T02:44:12.702Z,5.13
2018-04-01T02:46:39.742Z,5.23
2018-04-01T02:49:07.534Z,5.10
2018-04-01T02:51:34.580Z,5.20
2018-04-01T02:54:02.371Z,4.87
2018-04-01T02:56:29.392Z,4.77
2018-04-01T02:58:57.215Z,4.67
2018-04-01T03:01:24.230Z,4.70
2018-04-01T03:03:51.248Z,4.30
2018-04-01T03:06:19.056Z,4.20
2018-04-01T03:08:46.076Z,4.53
2018-04-01T03:11:13.143Z,4.20
2018-04-01T03:13:40.943Z,4.33
2018-04-01T03:16:07.959Z,4.13
2018-04-01T03:18:35.760Z,4.00
2018-04-01T03:21:02.799Z,4.20
2018-04-01T03:23:30.770Z,3.97
2018-04-01T03:25:58.566Z,3.90
2018-04-01T03:28:25.646Z,3.90
2018-04-01T03:30:52.700Z,3.50
2018-04-01T03:33:19.728Z,3.57
2018-04-01T03:35:46.811Z,3.67
2018-04-01T03:38:13.838Z,3.47
2018-04-01T03:40:40.851Z,3.40
2018-04-01T03:43:08.650Z,3.60
2018-04-01T03:45:35.670Z,3.30
2018-04-01T03:48:03.448Z,3.43
2018-04-01T03:50:31.258Z,3.30
2018-04-01T03:52:58.275Z,3.40
2018-04-01T03:55:26.064Z,3.43
2018-04-01T03:57:53.110Z,3.20
2018-04-01T04:00:20.131Z,3.40
2018-04-01T04:02:47.151Z,3.40
2018-04-01T04:05:14.189Z,3.37
2018-04-01T04:07:41.198Z,3.30
2018-04-01T04:10:08.995Z,3.10
2018-04-01T04:12:36.035Z,2.97
2018-04-01T04:15:03.831Z,3.30
2018-04-01T04:17:30.878Z,3.73
2018-04-01T04:19:57.924Z,3.20
2018-04-01T04:22:25.094Z,3.10
2018-04-01T04:24:52.304Z,3.60
2018-04-01T04:27:19.344Z,3.57
2018-04-01T04:29:46.362Z,3.50
2018-04-01T04:32:13.368Z,3.40
2018-04-01T04:34:41.270Z,3.50
2018-04-01T04:37:08.294Z,3.70
2018-04-01T04:39:36.074Z,3.50
2018-04-01T04:42:03.134Z,3.40
2018-04-01T04:44:30.186Z,3.57
2018-04-01T04:46:57.971Z,3.87
2018-04-01T04:49:25.015Z,3.83
2018-04-01T04:51:52.093Z,3.73
2018-04-01T04:54:19.562Z,3.37
2018-04-01T04:56:46.603Z,3.60
2018-04-01T04:59:13.618Z,3.47
2018-04-01T05:01:40.693Z,3.90
2018-04-01T05:04:07.770Z,3.90
2018-04-01T05:06:34.784Z,3.57
2018-04-01T05:09:02.599Z,3.47
2018-04-01T05:11:29.652Z,3.60
2018-04-01T05:13:57.480Z,3.60
2018-04-01T05:16:25.282Z,3.90
2018-04-01T05:18:52.380Z,3.63
2018-04-01T05:21:19.400Z,3.57
2018-04-01T05:23:46.424Z,3.67
2018-04-01T05:26:13.531Z,3.80
2018-04-01T05:28:40.589Z,3.63
2018-04-01T05:31:07.716Z,3.70
2018-04-01T05:33:34.770Z,3.90
2018-04-01T05:36:01.816Z,3.80
2018-04-01T05:38:28.867Z,3.30
2018-04-01T05:40:55.901Z,3.70
2018-04-01T05:43:22.923Z,3.40
2018-04-01T05:45:50.700Z,3.73
2018-04-01T05:48:18.491Z,3.60
2018-04-01T05:50:45.548Z,3.43
2018-04-01T05:53:12.777Z,3.73
2018-04-01T05:55:40.658Z,3.40
2018-04-01T05:58:08.446Z,3.67
2018-04-01T06:00:35.521Z,3.50
2018-04-01T06:03:02.576Z,3.47
2018-04-01T06:05:29.590Z,3.30
2018-04-01T06:07:57.424Z,3.57
2018-04-01T06:10:25.260Z,3.40
2018-04-01T06:12:52.271Z,2.97
2018-04-01T06:15:20.074Z,3.40
2018-04-01T06:17:47.139Z,3.20
2018-04-01T06:20:14.155Z,2.90
2018-04-01T06:22:41.189Z,3.40
2018-04-01T06:25:09.006Z,3.20
2018-04-01T06:27:36.121Z,3.10
2018-04-01T06:30:03.168Z,3.60
2018-04-01T06:32:31.019Z,3.17
2018-04-01T06:34:58.049Z,3.27
2018-04-01T06:37:25.063Z,2.93
2018-04-01T06:39:52.896Z,3.13
2018-04-01T06:42:21.047Z,2.83
2018-04-01T06:44:48.090Z,2.90
2018-04-01T06:47:15.178Z,3.10
2018-04-01T06:49:42.243Z,3.20
2018-04-01T06:52:09.296Z,2.93
2018-04-01T06:54:36.403Z,2.97
2018-04-01T06:57:03.493Z,3.50
2018-04-01T06:59:30.558Z,3.43
2018-04-01T07:01:57.906Z,3.63
2018-04-01T07:04:24.942Z,3.53
2018-04-01T07:06:51.971Z,4.10
2018-04-01T07:09:19.115Z,4.03
2018-04-01T07:11:46.254Z,4.37
2018-04-01T07:14:14.143Z,4.20
2018-04-01T07:16:41.190Z,3.90
2018-04-01T07:19:08.211Z,4.13
2018-04-01T07:21:36.818Z,4.33
2018-04-01T07:24:03.891Z,3.93
2018-04-01T07:26:30.919Z,3.90
2018-04-01T07:28:58.821Z,4.33
2018-04-01T07:31:25.879Z,4.67
2018-04-01T07:33:52.905Z,4.00
2018-04-01T07:36:20.751Z,3.70
2018-04-01T07:38:47.828Z,3.70
2018-04-01T07:41:15.609Z,3.50
2018-04-01T07:43:43.418Z,3.80
2018-04-01T07:46:10.469Z,3.90
2018-04-01T07:48:37.510Z,3.73
2018-04-01T07:51:04.520Z,4.00
2018-04-01T07:53:32.449Z,4.00
2018-04-01T07:55:59.522Z,3.90
2018-04-01T07:58:26.583Z,3.70
2018-04-01T08:00:53.606Z,4.03
2018-04-01T08:03:20.609Z,3.80
2018-04-01T08:05:48.382Z,3.60
2018-04-01T08:08:16.203Z,4.27
2018-04-01T08:10:43.227Z,3.77
2018-04-01T08:13:10.299Z,4.10
2018-04-01T08:15:37.342Z,4.67
2018-04-01T08:18:04.458Z,4.10
2018-04-01T08:20:31.468Z,4.60
2018-04-01T08:22:58.496Z,4.13
2018-04-01T08:25:25.527Z,4.20
2018-04-01T08:27:53.298Z,4.40
2018-04-01T08:30:21.963Z,4.10
2018-04-01T08:32:49.781Z,4.53
2018-04-01T08:35:16.794Z,4.47
2018-04-01T08:37:44.924Z,4.63
2018-04-01T08:40:12.011Z,4.40
2018-04-01T08:42:39.192Z,4.57
2018-04-01T08:45:06.246Z,4.40
2018-04-01T08:47:34.051Z,4.50
2018-04-01T08:50:01.066Z,4.57
2018-04-01T08:52:28.220Z,4.50
2018-04-01T08:54:56.039Z,4.63
2018-04-01T08:57:23.063Z,4.80
2018-04-01T08:59:50.130Z,4.40
2018-04-01T09:02:17.158Z,4.57
2018-04-01T09:04:45.028Z,4.40
2018-04-01T09:07:12.839Z,4.60
2018-04-01T09:09:39.850Z,4.67
2018-04-01T09:12:07.676Z,5.03
2018-04-01T09:14:34.745Z,4.47
2018-04-01T09:17:02.915Z,4.60
2018-04-01T09:19:30.748Z,4.10
2018-04-01T09:21:57.908Z,4.30
2018-04-01T09:24:24.945Z,4.60
2018-04-01T09:26:52.636Z,4.80
2018-04-01T09:29:19.683Z,4.67
2018-04-01T09:31:46.802Z,4.30
2018-04-01T09:34:14.647Z,4.40
2018-04-01T09:36:41.719Z,4.30
2018-04-01T09:39:09.532Z,4.33
2018-04-01T09:41:36.682Z,4.40
2018-04-01T09:44:03.828Z,4.20
2018-04-01T09:46:30.864Z,4.37
2018-04-01T09:48:58.698Z,4.23
2018-04-01T09:51:25.813Z,4.20
2018-04-01T09:53:52.838Z,3.87
2018-04-01T09:56:20.635Z,3.77
2018-04-01T09:58:47.679Z,3.50
2018-04-01T10:01:15.959Z,3.47
2018-04-01T10:03:43.546Z,3.20
2018-04-01T10:06:11.090Z,4.10
2018-04-01T10:08:38.693Z,3.70
2018-04-01T10:11:06.335Z,5.77
2018-04-01T10:13:33.900Z,3.57
2018-04-01T10:16:01.428Z,3.73
2018-04-01T10:18:28.942Z,3.40
2018-04-01T10:20:56.497Z,3.40
2018-04-01T10:23:24.022Z,3.63
2018-04-01T10:25:52.634Z,3.27
2018-04-01T10:28:20.204Z,3.17
2018-04-01T10:30:47.716Z,3.00
2018-04-01T10:33:15.305Z,3.23
2018-04-01T10:35:42.874Z,3.30
2018-04-01T10:38:11.166Z,3.37
2018-04-01T10:40:39.640Z,3.17
2018-04-01T10:43:07.943Z,3.27
2018-04-01T10:45:35.470Z,3.20
2018-04-01T10:48:02.978Z,3.07
2018-04-01T10:50:30.753Z,3.30
2018-04-01T10:52:58.517Z,2.97
2018-04-01T10:55:25.601Z,2.90
2018-04-01T10:57:52.681Z,2.80
2018-04-01T11:00:20.471Z,2.73
2018-04-01T11:02:48.260Z,2.70
2018-04-01T11:05:15.313Z,2.90
2018-04-01T11:07:42.359Z,2.77
2018-04-01T11:10:09.389Z,3.00
2018-04-01T11:12:37.216Z,2.80
2018-04-01T11:15:04.243Z,2.60
2018-04-01T11:17:31.324Z,3.40
2018-04-01T11:19:58.398Z,2.70
2018-04-01T11:22:25.476Z,2.70
2018-04-01T11:24:53.291Z,2.20
2018-04-01T11:27:20.331Z,2.77
2018-04-01T11:29:47.406Z,2.60
2018-04-01T11:32:14.434Z,2.53
2018-04-01T11:34:41.588Z,3.03
2018-04-01T11:37:08.611Z,2.80
2018-04-01T11:39:35.618Z,3.00
2018-04-01T11:42:02.689Z,2.63
2018-04-01T11:44:30.137Z,2.50
2018-04-01T11:46:57.959Z,2.80
2018-04-01T11:49:25.038Z,2.73
2018-04-01T11:51:52.129Z,2.47
2018-04-01T11:54:19.185Z,2.03
2018-04-01T11:56:46.246Z,1.70
2018-04-01T11:59:14.109Z,2.27
2018-04-01T12:01:41.142Z,2.20
2018-04-01T12:04:08.225Z,2.20
2018-04-01T12:06:35.256Z,1.97
2018-04-01T12:09:02.361Z,2.30
2018-04-01T12:11:29.362Z,2.37
2018-04-01T12:13:56.393Z,2.67
2018-04-01T12:16:23.419Z,2.47
2018-04-01T12:18:51.235Z,2.70
2018-04-01T12:21:18.266Z,2.63
2018-04-01T12:23:45.295Z,2.40
2018-04-01T12:26:13.344Z,2.60
2018-04-01T12:28:40.398Z,2.50
2018-04-01T12:31:08.979Z,2.70
2018-04-01T12:33:37.535Z,2.10
2018-04-01T12:36:04.660Z,2.30
2018-04-01T12:38:31.687Z,2.23
2018-04-01T12:40:59.505Z,2.00
2018-04-01T12:43:26.523Z,1.70
2018-04-01T12:45:54.319Z,1.97
2018-04-01T12:48:21.362Z,1.70
2018-04-01T12:50:48.386Z,1.97
2018-04-01T12:53:16.179Z,1.83
2018-04-01T12:55:43.246Z,1.90
2018-04-01T12:58:10.268Z,1.40
2018-04-01T13:00:38.056Z,1.60
2018-04-01T13:03:05.866Z,1.53
2018-04-01T13:05:32.894Z,1.50
2018-04-01T13:07:59.937Z,1.40
2018-04-01T13:10:26.988Z,1.10
2018-04-01T13:12:54.007Z,1.17
2018-04-01T13:15:21.034Z,1.17
2018-04-01T13:17:48.087Z,1.10
2018-04-01T13:20:15.106Z,1.10
2018-04-01T13:22:42.141Z,1.23
2018-04-01T13:25:09.953Z,1.30
2018-04-01T13:27:36.988Z,1.00
2018-04-01T13:30:04.019Z,1.50
2018-04-01T13:32:31.831Z,1.30
2018-04-01T13:34:58.869Z,1.43
2018-04-01T13:37:26.041Z,1.40
2018-04-01T13:39:53.111Z,1.60
2018-04-01T13:42:20.938Z,1.90
2018-04-01T13:44:47.963Z,1.60
2018-04-01T13:47:15.864Z,1.93
2018-04-01T13:49:42.878Z,1.90
2018-04-01T13:52:10.668Z,2.00
2018-04-01T13:54:38.470Z,2.30
2018-04-01T13:57:05.486Z,2.50
2018-04-01T13:59:32.562Z,2.17
2018-04-01T14:01:59.610Z,2.50
2018-04-01T14:04:26.638Z,2.57
2018-04-01T14:06:53.680Z,1.80
2018-04-01T14:09:20.723Z,1.60
2018-04-01T14:11:47.783Z,1.53
2018-04-01T14:14:14.780Z,2.30
2018-04-01T14:16:41.833Z,1.50
2018-04-01T14:19:08.850Z,1.60
2018-04-01T14:21:36.682Z,1.20
2018-04-01T14:24:03.754Z,1.30
2018-04-01T14:26:30.773Z,1.30
2018-04-01T14:28:57.783Z,1.40
2018-04-01T14:31:25.640Z,1.43
2018-04-01T14:33:54.177Z,1.70
2018-04-01T14:36:21.207Z,1.40
2018-04-01T14:38:49.443Z,2.00
2018-04-01T14:41:16.471Z,1.80
2018-04-01T14:43:43.590Z,1.77
2018-04-01T14:46:10.658Z,1.80
2018-04-01T14:48:38.458Z,1.80
2018-04-01T14:51:05.500Z,1.83
2018-04-01T14:53:32.571Z,1.80
2018-04-01T14:55:59.663Z,1.73
2018-04-01T14:58:26.677Z,1.80
2018-04-01T15:00:53.807Z,1.90
2018-04-01T15:03:20.843Z,1.90
2018-04-01T15:05:48.647Z,1.90
2018-04-01T15:08:15.722Z,2.33
2018-04-01T15:10:43.530Z,2.17
2018-04-01T15:13:11.329Z,2.47
2018-04-01T15:15:38.392Z,2.50
2018-04-01T15:18:05.410Z,2.40
2018-04-01T15:20:33.200Z,2.70
2018-04-01T15:23:00.229Z,2.37
2018-04-01T15:25:28.028Z,2.53
2018-04-01T15:27:55.050Z,3.10
2018-04-01T15:30:22.853Z,1.77
2018-04-01T15:32:49.919Z,1.60
2018-04-01T15:35:16.994Z,1.50
2018-04-01T15:37:44.826Z,1.50
2018-04-01T15:40:11.992Z,1.63
2018-04-01T15:42:39.113Z,1.50
2018-04-01T15:45:06.213Z,1.53
2018-04-01T15:47:33.248Z,1.60
2018-04-01T15:50:00.265Z,1.50
2018-04-01T15:52:28.102Z,1.43
2018-04-01T15:54:55.116Z,1.50
2018-04-01T15:57:22.171Z,1.60
2018-04-01T15:59:49.238Z,1.60
2018-04-01T16:02:16.254Z,1.80
2018-04-01T16:04:44.040Z,1.83
2018-04-01T16:07:11.103Z,2.53
2018-04-01T16:09:38.142Z,2.30
2018-04-01T16:12:05.158Z,2.40
2018-04-01T16:14:33.189Z,2.67
2018-04-01T16:17:00.211Z,3.27
2018-04-01T16:19:28.012Z,2.90
2018-04-01T16:21:55.090Z,2.97
2018-04-01T16:24:22.094Z,3.20
2018-04-01T16:26:49.899Z,3.50
2018-04-01T16:29:16.946Z,3.30
2018-04-01T16:31:43.958Z,3.37
2018-04-01T16:34:11.759Z,3.80
2018-04-01T16:36:38.809Z,3.70
2018-04-01T16:39:05.850Z,3.40
2018-04-01T16:41:33.855Z,4.10
2018-04-01T16:44:00.992Z,3.73
2018-04-01T16:46:28.015Z,4.00
2018-04-01T16:48:55.814Z,4.10
2018-04-01T16:51:22.873Z,4.30
2018-04-01T16:53:49.895Z,4.00
2018-04-01T16:56:17.693Z,3.90
2018-04-01T16:58:44.736Z,3.97
2018-04-01T17:01:11.778Z,4.07
2018-04-01T17:03:39.564Z,3.57
2018-04-01T17:06:06.678Z,3.53
2018-04-01T17:08:33.698Z,3.43
2018-04-01T17:11:00.723Z,3.57
2018-04-01T17:13:27.784Z,4.23
2018-04-01T17:15:54.798Z,4.12
2018-04-01T17:18:22.700Z,3.30
2018-04-01T17:20:49.773Z,2.73
2018-04-01T17:23:16.784Z,3.10
2018-04-01T17:25:44.550Z,2.70
2018-04-01T17:28:12.387Z,2.47
2018-04-01T17:30:39.418Z,2.47
2018-04-01T17:33:06.450Z,2.63
2018-04-01T17:35:33.558Z,2.70
2018-04-01T17:38:00.601Z,2.40
2018-04-01T17:40:28.734Z,2.90
2018-04-01T17:42:55.815Z,2.83
2018-04-01T17:45:22.845Z,2.77
2018-04-01T17:47:49.882Z,2.70
2018-04-01T17:50:16.945Z,3.20
2018-04-01T17:52:44.212Z,2.90
2018-04-01T17:55:11.286Z,3.27
2018-04-01T17:57:38.412Z,3.30
2018-04-01T18:00:05.855Z,3.70
2018-04-01T18:02:33.691Z,3.13
2018-04-01T18:05:01.032Z,3.33
2018-04-01T18:07:28.052Z,3.47
2018-04-01T18:09:55.426Z,3.70
2018-04-01T18:12:22.466Z,3.70
2018-04-01T18:14:49.919Z,3.37
2018-04-01T18:17:17.716Z,3.83
2018-04-01T18:19:44.746Z,4.10
2018-04-01T18:22:12.531Z,3.87
2018-04-01T18:24:39.545Z,3.80
2018-04-01T18:27:06.691Z,4.43
2018-04-01T18:29:34.766Z,4.70
2018-04-01T18:32:02.201Z,4.23
2018-04-01T18:34:29.266Z,4.70
2018-04-01T18:36:56.586Z,3.83
2018-04-01T18:39:23.643Z,3.20
2018-04-01T18:41:50.715Z,2.73
2018-04-01T18:44:17.844Z,2.90
2018-04-01T18:46:44.875Z,2.83
2018-04-01T18:49:12.695Z,2.40
2018-04-01T18:51:39.720Z,2.70
2018-04-01T18:54:06.842Z,2.60
2018-04-01T18:56:33.899Z,2.80
2018-04-01T18:59:01.687Z,3.00
2018-04-01T19:01:29.588Z,2.97
2018-04-01T19:03:57.113Z,3.10
2018-04-01T19:06:24.907Z,2.40
2018-04-01T19:08:51.954Z,2.17
2018-04-01T19:11:19.015Z,2.20
2018-04-01T19:13:46.051Z,2.07
2018-04-01T19:16:14.406Z,2.10
2018-04-01T19:18:41.960Z,2.20
2018-04-01T19:21:09.484Z,2.13
2018-04-01T19:23:37.011Z,2.17
2018-04-01T19:26:05.452Z,2.10
2018-04-01T19:28:32.998Z,2.20
2018-04-01T19:31:00.502Z,2.83
2018-04-01T19:33:28.055Z,2.70
2018-04-01T19:35:55.611Z,2.90
2018-04-01T19:38:23.114Z,2.87
2018-04-01T19:40:50.674Z,3.00
2018-04-01T19:43:18.943Z,2.70
2018-04-01T19:45:48.026Z,2.80
2018-04-01T19:48:15.701Z,2.87
2018-04-01T19:50:43.211Z,2.53
2018-04-01T19:53:11.485Z,2.63
2018-04-01T19:55:39.777Z,2.73
2018-04-01T19:58:07.275Z,2.90
2018-04-01T20:00:34.890Z,2.90
2018-04-01T20:03:03.216Z,2.60
2018-04-01T20:05:32.267Z,2.50
2018-04-01T20:08:00.537Z,2.83
2018-04-01T20:10:28.826Z,3.13
2018-04-01T20:12:58.010Z,3.37
2018-04-01T20:15:25.713Z,2.97
2018-04-01T20:17:54.286Z,3.13
2018-04-01T20:20:22.579Z,3.40
2018-04-01T20:22:50.866Z,3.90
2018-04-01T20:25:18.485Z,3.90
2018-04-01T20:27:46.019Z,4.30
2018-04-01T20:30:13.595Z,4.10
2018-04-01T20:32:41.153Z,4.90
2018-04-01T20:35:08.667Z,4.73
2018-04-01T20:37:36.938Z,5.50
2018-04-01T20:40:04.462Z,5.60
2018-04-01T20:42:31.975Z,6.13
2018-04-01T20:44:59.487Z,5.73
2018-04-01T20:47:27.193Z,7.40
2018-04-01T20:49:54.698Z,7.50
2018-04-01T20:52:22.807Z,7.03
2018-04-01T20:54:50.338Z,8.37
2018-04-01T20:57:17.849Z,7.87
2018-04-01T20:59:45.354Z,8.43
2018-04-01T21:02:13.655Z,8.50
2018-04-01T21:04:41.160Z,8.83
2018-04-01T21:07:08.670Z,9.53
2018-04-01T21:09:36.964Z,9.17
2018-04-01T21:12:04.475Z,10.70
2018-04-01T21:14:32.005Z,10.47
2018-04-01T21:16:59.556Z,9.83
2018-04-01T21:19:27.078Z,10.13
2018-04-01T21:21:55.359Z,10.37
2018-04-01T21:24:23.662Z,11.23
2018-04-01T21:26:51.171Z,11.53
2018-04-01T21:29:18.679Z,11.70
2018-04-01T21:31:46.217Z,10.63
2018-04-01T21:34:13.743Z,11.47
2018-04-01T21:36:41.256Z,10.93
2018-04-01T21:39:09.576Z,11.60
2018-04-01T21:41:37.090Z,11.87
2018-04-01T21:44:05.367Z,11.83
2018-04-01T21:46:32.899Z,10.63
2018-04-01T21:49:00.542Z,10.63
2018-04-01T21:51:28.058Z,10.57
2018-04-01T21:53:55.597Z,9.17
2018-04-01T21:56:23.106Z,9.93
2018-04-01T21:58:50.632Z,9.67
2018-04-01T22:01:18.223Z,10.53
2018-04-01T22:03:45.755Z,10.60
2018-04-01T22:06:13.271Z,10.50
2018-04-01T22:08:41.579Z,9.27
2018-04-01T22:11:09.131Z,9.60
2018-04-01T22:13:37.414Z,8.67
2018-04-01T22:16:05.008Z,8.27
2018-04-01T22:18:32.522Z,8.20
2018-04-01T22:21:00.807Z,8.00
2018-04-01T22:23:28.403Z,8.13
2018-04-01T22:25:55.926Z,7.90
2018-04-01T22:28:23.443Z,8.03
2018-04-01T22:30:50.978Z,8.20
2018-04-01T22:33:19.255Z,7.53
2018-04-01T22:35:46.778Z,8.00
2018-04-01T22:38:14.299Z,7.50
2018-04-01T22:40:41.842Z,7.53
2018-04-01T22:43:10.110Z,7.67
2018-04-01T22:45:38.610Z,6.77
2018-04-01T22:48:06.890Z,7.40
2018-04-01T22:50:35.233Z,7.07
2018-04-01T22:53:02.772Z,7.43
2018-04-01T22:55:30.409Z,7.30
2018-04-01T22:58:00.327Z,7.90
2018-04-01T23:00:28.629Z,7.27
2018-04-01T23:02:56.131Z,6.77
2018-04-01T23:05:23.657Z,7.20
2018-04-01T23:07:51.177Z,6.57
2018-04-01T23:10:18.707Z,7.50
2018-04-01T23:12:46.210Z,7.43
2018-04-01T23:15:13.737Z,7.37
2018-04-01T23:17:41.244Z,7.57
2018-04-01T23:20:08.847Z,7.27
2018-04-01T23:22:36.422Z,7.73
2018-04-01T23:25:04.671Z,7.47
2018-04-01T23:27:32.954Z,7.10
2018-04-01T23:30:01.260Z,6.50
2018-04-01T23:32:28.768Z,6.90
2018-04-01T23:34:56.295Z,7.03
2018-04-01T23:37:23.830Z,7.27
2018-04-01T23:39:52.111Z,7.30
2018-04-01T23:42:19.634Z,7.60
2018-04-01T23:44:47.168Z,7.40
2018-04-01T23:47:14.678Z,7.33
2018-04-01T23:49:42.184Z,7.23
2018-04-01T23:52:09.787Z,6.97
2018-04-01T23:54:37.299Z,7.60
2018-04-01T23:57:05.579Z,7.63
2018-04-01T23:59:33.880Z,7.77
